Gazi — 9HA2542 — position and weather

sailwx.info

Track history (hours):
 
Tides and Currents Weather Stations Pressure Air Temp Water Temp Dewpoint Dewpoint Depression Visibility Wind Speed Wind Dir Waves Ship Positions

Gazi

Last reported at 2015-May-24 03:33 UTC. Time now 2015-May-24 11:15 UTC.
Position N 34°27' E 035°49'.

Length 153 m; draft 9.4 m.

Type: Ship. MMSI: 248841000.

Date/timePositionNaut miles runAvg speedWind from/ knotsBaromVisibWave heightAir tempDewpointWater temp
2015-May-24 03:33N 34°27' E 035°49'  
2015-May-20 18:13N 34°30' E 034°45'913.0
2015-May-20 17:32N 34°30' E 034°34'1313.2
2015-May-20 16:33N 34°30' E 034°19'1313.3
2015-May-20 15:33N 34°30' E 034°03'1312.9
2015-May-20 14:33N 34°30' E 033°47'1312.7
2015-May-20 13:33N 34°30' E 033°31'1312.5
2015-May-20 12:33N 34°30' E 033°16'1312.6
2015-May-20 11:33N 34°30' E 033°01'1312.7
2015-May-20 10:33N 34°34' E 032°46'1312.7
2015-May-20 09:33N 34°38' E 032°32'2612.8
2015-May-20 07:32N 34°45' E 032°01'17912.6
2015-May-19 17:19N 35°37' E 028°32'912.4
2015-May-19 16:33N 35°40' E 028°21'1612.1
2015-May-19 15:12N 35°44' E 028°02'5611.9
2015-May-19 10:33N 36°21' E 027°11'1211.9
2015-May-19 09:33N 36°31' E 027°01'1212.1
2015-May-19 08:33N 36°40' E 026°52'1212.2
2015-May-19 07:33N 36°50' E 026°43'1212.4
2015-May-19 06:33N 36°60' E 026°34'1712.4
2015-May-19 05:11N 37°12' E 026°19'812.7
2015-May-19 04:33N 37°17' E 026°11'1712.2
2015-May-19 03:07N 37°30' E 025°56'712.0
2015-May-19 02:33N 37°36' E 025°53'275 8.7
2015-May-17 19:08N 41°23' E 029°14'1 0.2
2015-May-17 16:28N 41°24' E 029°14'1 0.3
2015-May-17 13:32N 41°24' E 029°13'1 0.4
2015-May-17 11:09N 41°25' E 029°12'1 0.5
2015-May-17 09:26N 41°25' E 029°11'0 0.4
2015-May-17 08:33N 41°25' E 029°11'251 8.4
2015-May-16 02:29N 45°26' E 030°47'1112.0
2015-May-16 01:34N 45°37' E 030°52'1212.3
2015-May-16 00:33N 45°49' E 030°57'1212.2
2015-May-15 23:33N 46°01' E 031°02'1110.9
2015-May-15 22:34N 46°11' E 030°59'1111.0
2015-May-15 21:33N 46°22' E 030°55'17 8.3
2015-May-15 19:33N 46°35' E 031°10'10 9.8
2015-May-15 18:33N 46°34' E 031°24'9 8.5
2015-May-15 17:33N 46°35' E 031°37'10 8.7
2015-May-15 16:26N 46°37' E 031°51'7 7.9
2015-May-15 15:33N 46°43' E 031°56'8 7.5
2015-May-15 14:33N 46°50' E 031°56'7 7.1
2015-May-15 13:34N 46°56' E 032°01'0 0.4
2015-May-15 12:32N 46°57' E 032°01'0 0.0
2015-May-15 11:32N 46°57' E 032°01'0 0.0
2015-May-15 10:34N 46°57' E 032°01'0 0.0
2015-May-15 09:31N 46°57' E 032°01'0 0.0
2015-May-15 08:32N 46°57' E 032°01'0 0.0
2015-May-15 07:32N 46°57' E 032°01'0 0.0
2015-May-15 06:32N 46°57' E 032°01'0 0.0
2015-May-15 05:31N 46°57' E 032°01'0 0.0
2015-May-15 04:31N 46°57' E 032°01'0 0.0
2015-May-15 03:31N 46°57' E 032°01'0 0.0
2015-May-15 02:31N 46°57' E 032°01'0 0.0
2015-May-15 01:31N 46°57' E 032°01'0 0.0
2015-May-15 00:29N 46°57' E 032°01'0 0.0
2015-May-14 23:31N 46°57' E 032°01'0 0.0
2015-May-14 22:31N 46°57' E 032°01'0 0.0
2015-May-14 21:31N 46°57' E 032°01'0 0.0
2015-May-14 20:31N 46°57' E 032°01'0 0.0
2015-May-14 19:31N 46°57' E 032°01'0 0.0
2015-May-14 18:31N 46°57' E 032°01'0 0.0
2015-May-14 17:31N 46°57' E 032°01'0 0.0
2015-May-14 16:33N 46°57' E 032°01'0 0.0
2015-May-14 15:33N 46°57' E 032°01'0 0.0
2015-May-14 14:33N 46°57' E 032°01'0 0.0
2015-May-14 13:33N 46°57' E 032°01'0 0.0
2015-May-14 12:32N 46°57' E 032°01'0 0.0
2015-May-14 11:32N 46°57' E 032°01'0 0.0
2015-May-14 10:32N 46°57' E 032°01'0 0.0
2015-May-14 09:32N 46°57' E 032°01'0 0.0
2015-May-14 08:32N 46°57' E 032°01'0 0.0
2015-May-14 07:34N 46°57' E 032°01'0 0.0
2015-May-14 06:30N 46°57' E 032°01'0 0.0
2015-May-14 05:30N 46°57' E 032°01'0 0.0
2015-May-14 04:30N 46°57' E 032°01'  
Track history (hours):
 
Tides and Currents Weather Stations Pressure Air Temp Water Temp Dewpoint Dewpoint Depression Visibility Wind Speed Wind Dir Waves Ship Positions

Gazi

Last reported at 2015-May-24 03:33 UTC. Time now 2015-May-24 11:15 UTC.
Position N 34°27' E 035°49'.

Length 153 m; draft 9.4 m.

Type: Ship. MMSI: 248841000.

Date/timePositionNaut miles runAvg speedWind from/ knotsBaromVisibWave heightAir tempDewpointWater temp
2015-May-24 03:33N 34°27' E 035°49'  
2015-May-20 18:13N 34°30' E 034°45'913.0
2015-May-20 17:32N 34°30' E 034°34'1313.2
2015-May-20 16:33N 34°30' E 034°19'1313.3
2015-May-20 15:33N 34°30' E 034°03'1312.9
2015-May-20 14:33N 34°30' E 033°47'1312.7
2015-May-20 13:33N 34°30' E 033°31'1312.5
2015-May-20 12:33N 34°30' E 033°16'1312.6
2015-May-20 11:33N 34°30' E 033°01'1312.7
2015-May-20 10:33N 34°34' E 032°46'1312.7
2015-May-20 09:33N 34°38' E 032°32'2612.8
2015-May-20 07:32N 34°45' E 032°01'17912.6
2015-May-19 17:19N 35°37' E 028°32'912.4
2015-May-19 16:33N 35°40' E 028°21'1612.1
2015-May-19 15:12N 35°44' E 028°02'5611.9
2015-May-19 10:33N 36°21' E 027°11'1211.9
2015-May-19 09:33N 36°31' E 027°01'1212.1
2015-May-19 08:33N 36°40' E 026°52'1212.2
2015-May-19 07:33N 36°50' E 026°43'1212.4
2015-May-19 06:33N 36°60' E 026°34'1712.4
2015-May-19 05:11N 37°12' E 026°19'812.7
2015-May-19 04:33N 37°17' E 026°11'1712.2
2015-May-19 03:07N 37°30' E 025°56'712.0
2015-May-19 02:33N 37°36' E 025°53'275 8.7
2015-May-17 19:08N 41°23' E 029°14'1 0.2
2015-May-17 16:28N 41°24' E 029°14'1 0.3
2015-May-17 13:32N 41°24' E 029°13'1 0.4
2015-May-17 11:09N 41°25' E 029°12'1 0.5
2015-May-17 09:26N 41°25' E 029°11'0 0.4
2015-May-17 08:33N 41°25' E 029°11'251 8.4
2015-May-16 02:29N 45°26' E 030°47'1112.0
2015-May-16 01:34N 45°37' E 030°52'1212.3
2015-May-16 00:33N 45°49' E 030°57'1212.2
2015-May-15 23:33N 46°01' E 031°02'1110.9
2015-May-15 22:34N 46°11' E 030°59'1111.0
2015-May-15 21:33N 46°22' E 030°55'17 8.3
2015-May-15 19:33N 46°35' E 031°10'10 9.8
2015-May-15 18:33N 46°34' E 031°24'9 8.5
2015-May-15 17:33N 46°35' E 031°37'10 8.7
2015-May-15 16:26N 46°37' E 031°51'7 7.9
2015-May-15 15:33N 46°43' E 031°56'8 7.5
2015-May-15 14:33N 46°50' E 031°56'7 7.1
2015-May-15 13:34N 46°56' E 032°01'0 0.4
2015-May-15 12:32N 46°57' E 032°01'0 0.0
2015-May-15 11:32N 46°57' E 032°01'0 0.0
2015-May-15 10:34N 46°57' E 032°01'0 0.0
2015-May-15 09:31N 46°57' E 032°01'0 0.0
2015-May-15 08:32N 46°57' E 032°01'0 0.0
2015-May-15 07:32N 46°57' E 032°01'0 0.0
2015-May-15 06:32N 46°57' E 032°01'0 0.0
2015-May-15 05:31N 46°57' E 032°01'0 0.0
2015-May-15 04:31N 46°57' E 032°01'0 0.0
2015-May-15 03:31N 46°57' E 032°01'0 0.0
2015-May-15 02:31N 46°57' E 032°01'0 0.0
2015-May-15 01:31N 46°57' E 032°01'0 0.0
2015-May-15 00:29N 46°57' E 032°01'0 0.0
2015-May-14 23:31N 46°57' E 032°01'0 0.0
2015-May-14 22:31N 46°57' E 032°01'0 0.0
2015-May-14 21:31N 46°57' E 032°01'0 0.0
2015-May-14 20:31N 46°57' E 032°01'0 0.0
2015-May-14 19:31N 46°57' E 032°01'0 0.0
2015-May-14 18:31N 46°57' E 032°01'0 0.0
2015-May-14 17:31N 46°57' E 032°01'0 0.0
2015-May-14 16:33N 46°57' E 032°01'0 0.0
2015-May-14 15:33N 46°57' E 032°01'0 0.0
2015-May-14 14:33N 46°57' E 032°01'0 0.0
2015-May-14 13:33N 46°57' E 032°01'0 0.0
2015-May-14 12:32N 46°57' E 032°01'0 0.0
2015-May-14 11:32N 46°57' E 032°01'0 0.0
2015-May-14 10:32N 46°57' E 032°01'0 0.0
2015-May-14 09:32N 46°57' E 032°01'0 0.0
2015-May-14 08:32N 46°57' E 032°01'0 0.0
2015-May-14 07:34N 46°57' E 032°01'0 0.0
2015-May-14 06:30N 46°57' E 032°01'0 0.0
2015-May-14 05:30N 46°57' E 032°01'0 0.0
2015-May-14 04:30N 46°57' E 032°01'  

Dump ship's entire track history